sensor_id;sensor_type;location;lat;lon;timestamp;P1;durP1;ratioP1;P2;durP2;ratioP2
64022;SDS011;50264;52.088;5.296;2023-01-01T00:02:06;23.4;;;12.0;;
64022;SDS011;50264;52.088;5.296;2023-01-01T00:03:44;21.5;;;11.5;;
64022;SDS011;50264;52.088;5.296;2023-01-01T00:05:24;22.8;;;12.4;;
64022;SDS011;50264;52.088;5.296;2023-01-01T00:08:37;14.7;;;10.4;;
64022;SDS011;50264;52.088;5.296;2023-01-01T00:10:15;15.6;;;9.5;;
64022;SDS011;50264;52.088;5.296;2023-01-01T00:13:27;19.3;;;9.4;;
64022;SDS011;50264;52.088;5.296;2023-01-01T00:16:42;17.7;;;8.71;;
64022;SDS011;50264;52.088;5.296;2023-01-01T00:18:19;20.2;;;8.71;;
64022;SDS011;50264;52.088;5.296;2023-01-01T00:19:56;17.11;;;9.1;;
64022;SDS011;50264;52.088;5.296;2023-01-01T00:23:10;21.3;;;8.81;;
64022;SDS011;50264;52.088;5.296;2023-01-01T00:24:46;21.1;;;9.0;;
64022;SDS011;50264;52.088;5.296;2023-01-01T00:26:22;20.6;;;10.4;;
64022;SDS011;50264;52.088;5.296;2023-01-01T00:29:35;21.4;;;10.6;;
64022;SDS011;50264;52.088;5.296;2023-01-01T00:31:12;16.9;;;10.1;;
64022;SDS011;50264;52.088;5.296;2023-01-01T00:32:51;18.0;;;10.21;;
64022;SDS011;50264;52.088;5.296;2023-01-01T00:34:27;17.61;;;11.1;;
64022;SDS011;50264;52.088;5.296;2023-01-01T00:37:44;19.91;;;11.2;;
64022;SDS011;50264;52.088;5.296;2023-01-01T00:39:20;22.3;;;10.9;;
64022;SDS011;50264;52.088;5.296;2023-01-01T00:40:56;21.2;;;11.0;;
64022;SDS011;50264;52.088;5.296;2023-01-01T00:44:09;16.5;;;9.6;;
64022;SDS011;50264;52.088;5.296;2023-01-01T00:45:45;16.4;;;10.3;;
64022;SDS011;50264;52.088;5.296;2023-01-01T00:47:21;25.2;;;9.31;;
64022;SDS011;50264;52.088;5.296;2023-01-01T00:48:58;19.2;;;9.21;;
64022;SDS011;50264;52.088;5.296;2023-01-01T00:52:11;21.6;;;8.71;;
64022;SDS011;50264;52.088;5.296;2023-01-01T00:53:47;14.4;;;7.9;;
64022;SDS011;50264;52.088;5.296;2023-01-01T00:55:23;14.2;;;7.4;;
64022;SDS011;50264;52.088;5.296;2023-01-01T00:58:36;14.7;;;6.9;;
64022;SDS011;50264;52.088;5.296;2023-01-01T01:00:13;15.4;;;7.1;;
64022;SDS011;50264;52.088;5.296;2023-01-01T01:01:50;16.4;;;7.8;;
64022;SDS011;50264;52.088;5.296;2023-01-01T01:05:04;15.2;;;6.5;;
64022;SDS011;50264;52.088;5.296;2023-01-01T01:06:41;18.8;;;6.6;;
64022;SDS011;50264;52.088;5.296;2023-01-01T01:09:56;10.4;;;6.6;;
64022;SDS011;50264;52.088;5.296;2023-01-01T01:13:08;11.8;;;6.1;;
64022;SDS011;50264;52.088;5.296;2023-01-01T01:14:44;14.5;;;6.4;;
64022;SDS011;50264;52.088;5.296;2023-01-01T01:16:22;10.8;;;5.6;;
64022;SDS011;50264;52.088;5.296;2023-01-01T01:19:37;12.9;;;5.5;;
64022;SDS011;50264;52.088;5.296;2023-01-01T01:21:14;11.8;;;5.6;;
64022;SDS011;50264;52.088;5.296;2023-01-01T01:22:52;12.3;;;4.8;;
64022;SDS011;50264;52.088;5.296;2023-01-01T01:26:06;15.4;;;5.6;;
64022;SDS011;50264;52.088;5.296;2023-01-01T01:27:44;12.1;;;5.11;;
64022;SDS011;50264;52.088;5.296;2023-01-01T01:29:20;12.0;;;4.8;;
64022;SDS011;50264;52.088;5.296;2023-01-01T01:34:11;14.0;;;4.7;;
64022;SDS011;50264;52.088;5.296;2023-01-01T01:35:49;15.4;;;4.7;;
64022;SDS011;50264;52.088;5.296;2023-01-01T01:37:25;12.9;;;4.5;;
64022;SDS011;50264;52.088;5.296;2023-01-01T01:40:41;7.9;;;3.7;;
64022;SDS011;50264;52.088;5.296;2023-01-01T01:42:17;12.0;;;4.1;;
64022;SDS011;50264;52.088;5.296;2023-01-01T01:43:56;13.3;;;4.5;;
64022;SDS011;50264;52.088;5.296;2023-01-01T01:45:35;10.9;;;3.7;;
64022;SDS011;50264;52.088;5.296;2023-01-01T01:48:52;7.3;;;3.4;;
64022;SDS011;50264;52.088;5.296;2023-01-01T01:50:31;9.9;;;3.7;;
64022;SDS011;50264;52.088;5.296;2023-01-01T01:52:12;14.3;;;4.3;;
64022;SDS011;50264;52.088;5.296;2023-01-01T01:53:50;7.6;;;3.6;;
64022;SDS011;50264;52.088;5.296;2023-01-01T01:57:14;8.71;;;3.4;;
64022;SDS011;50264;52.088;5.296;2023-01-01T01:58:51;10.7;;;3.9;;
64022;SDS011;50264;52.088;5.296;2023-01-01T02:03:54;8.9;;;3.6;;
64022;SDS011;50264;52.088;5.296;2023-01-01T02:05:33;8.6;;;3.5;;
64022;SDS011;50264;52.088;5.296;2023-01-01T02:07:11;13.0;;;3.7;;
64022;SDS011;50264;52.088;5.296;2023-01-01T02:08:49;8.31;;;3.7;;
64022;SDS011;50264;52.088;5.296;2023-01-01T02:12:04;8.81;;;3.6;;
64022;SDS011;50264;52.088;5.296;2023-01-01T02:13:41;5.8;;;3.5;;
64022;SDS011;50264;52.088;5.296;2023-01-01T02:15:18;7.4;;;3.3;;
64022;SDS011;50264;52.088;5.296;2023-01-01T02:16:59;9.5;;;3.5;;
64022;SDS011;50264;52.088;5.296;2023-01-01T02:20:34;9.81;;;3.6;;
64022;SDS011;50264;52.088;5.296;2023-01-01T02:22:22;12.3;;;3.5;;
64022;SDS011;50264;52.088;5.296;2023-01-01T02:24:13;7.1;;;3.0;;
64022;SDS011;50264;52.088;5.296;2023-01-01T02:26:51;5.2;;;3.1;;
64022;SDS011;50264;52.088;5.296;2023-01-01T02:28:37;8.4;;;3.4;;
64022;SDS011;50264;52.088;5.296;2023-01-01T02:30:25;11.4;;;3.0;;
64022;SDS011;50264;52.088;5.296;2023-01-01T02:32:07;9.81;;;3.1;;
64022;SDS011;50264;52.088;5.296;2023-01-01T02:33:46;8.5;;;3.5;;
64022;SDS011;50264;52.088;5.296;2023-01-01T02:37:09;9.9;;;3.2;;
64022;SDS011;50264;52.088;5.296;2023-01-01T02:38:51;8.31;;;3.4;;
64022;SDS011;50264;52.088;5.296;2023-01-01T02:40:31;9.9;;;3.7;;
64022;SDS011;50264;52.088;5.296;2023-01-01T02:42:11;8.2;;;3.0;;
64022;SDS011;50264;52.088;5.296;2023-01-01T02:45:25;12.3;;;3.6;;
64022;SDS011;50264;52.088;5.296;2023-01-01T02:47:05;9.6;;;3.5;;
64022;SDS011;50264;52.088;5.296;2023-01-01T02:48:45;8.5;;;3.6;;
64022;SDS011;50264;52.088;5.296;2023-01-01T02:50:24;11.0;;;3.3;;
64022;SDS011;50264;52.088;5.296;2023-01-01T02:53:47;8.71;;;3.9;;
64022;SDS011;50264;52.088;5.296;2023-01-01T02:55:35;12.0;;;3.4;;
64022;SDS011;50264;52.088;5.296;2023-01-01T02:57:25;9.81;;;3.2;;
64022;SDS011;50264;52.088;5.296;2023-01-01T02:59:13;11.3;;;3.7;;
64022;SDS011;50264;52.088;5.296;2023-01-01T03:00:57;8.2;;;2.9;;
64022;SDS011;50264;52.088;5.296;2023-01-01T03:04:53;8.1;;;3.0;;
64022;SDS011;50264;52.088;5.296;2023-01-01T06:46:01;6.1;;;1.7;;
64022;SDS011;50264;52.088;5.296;2023-01-01T06:47:51;2.9;;;1.3;;
64022;SDS011;50264;52.088;5.296;2023-01-01T06:49:27;5.11;;;1.2;;
64022;SDS011;50264;52.088;5.296;2023-01-01T06:51:04;4.3;;;1.4;;
64022;SDS011;50264;52.088;5.296;2023-01-01T06:54:21;4.3;;;1.3;;
64022;SDS011;50264;52.088;5.296;2023-01-01T06:55:57;4.3;;;1.3;;
64022;SDS011;50264;52.088;5.296;2023-01-01T06:57:34;5.3;;;1.5;;
64022;SDS011;50264;52.088;5.296;2023-01-01T07:00:46;2.7;;;1.3;;
64022;SDS011;50264;52.088;5.296;2023-01-01T07:02:23;6.7;;;1.8;;
64022;SDS011;50264;52.088;5.296;2023-01-01T07:03:59;4.61;;;1.4;;
64022;SDS011;50264;52.088;5.296;2023-01-01T07:05:38;5.2;;;1.3;;
64022;SDS011;50264;52.088;5.296;2023-01-01T07:08:50;2.1;;;1.2;;
64022;SDS011;50264;52.088;5.296;2023-01-01T07:10:26;6.6;;;1.7;;
64022;SDS011;50264;52.088;5.296;2023-01-01T07:12:03;5.8;;;1.6;;
64022;SDS011;50264;52.088;5.296;2023-01-01T07:15:16;6.1;;;1.4;;
64022;SDS011;50264;52.088;5.296;2023-01-01T07:16:52;5.11;;;1.4;;
64022;SDS011;50264;52.088;5.296;2023-01-01T07:18:28;5.8;;;1.8;;
64022;SDS011;50264;52.088;5.296;2023-01-01T07:21:43;3.6;;;1.11;;
64022;SDS011;50264;52.088;5.296;2023-01-01T07:23:20;3.0;;;1.5;;
64022;SDS011;50264;52.088;5.296;2023-01-01T07:24:56;8.0;;;1.3;;
64022;SDS011;50264;52.088;5.296;2023-01-01T07:26:32;5.7;;;1.6;;
64022;SDS011;50264;52.088;5.296;2023-01-01T07:29:44;4.61;;;1.6;;
64022;SDS011;50264;52.088;5.296;2023-01-01T07:31:21;7.0;;;2.0;;
64022;SDS011;50264;52.088;5.296;2023-01-01T07:32:57;6.8;;;1.5;;
64022;SDS011;50264;52.088;5.296;2023-01-01T07:36:08;6.0;;;1.2;;
64022;SDS011;50264;52.088;5.296;2023-01-01T07:37:45;6.7;;;1.11;;
64022;SDS011;50264;52.088;5.296;2023-01-01T07:39:21;4.7;;;1.4;;
64022;SDS011;50264;52.088;5.296;2023-01-01T07:42:33;7.6;;;1.7;;
64022;SDS011;50264;52.088;5.296;2023-01-01T07:44:10;3.2;;;1.11;;
64022;SDS011;50264;52.088;5.296;2023-01-01T07:45:46;4.2;;;1.7;;
64022;SDS011;50264;52.088;5.296;2023-01-01T07:47:22;4.91;;;1.8;;
64022;SDS011;50264;52.088;5.296;2023-01-01T07:50:36;7.8;;;2.0;;
64022;SDS011;50264;52.088;5.296;2023-01-01T07:52:12;8.81;;;1.7;;
64022;SDS011;50264;52.088;5.296;2023-01-01T07:53:48;5.2;;;1.6;;
64022;SDS011;50264;52.088;5.296;2023-01-01T07:57:02;4.61;;;1.4;;
64022;SDS011;50264;52.088;5.296;2023-01-01T07:58:38;6.7;;;1.9;;
64022;SDS011;50264;52.088;5.296;2023-01-01T08:00:16;5.3;;;1.5;;
64022;SDS011;50264;52.088;5.296;2023-01-01T08:03:30;6.1;;;1.3;;
64022;SDS011;50264;52.088;5.296;2023-01-01T08:05:07;10.21;;;1.6;;
64022;SDS011;50264;52.088;5.296;2023-01-01T08:06:43;7.2;;;1.3;;
64022;SDS011;50264;52.088;5.296;2023-01-01T08:08:19;9.5;;;1.7;;
64022;SDS011;50264;52.088;5.296;2023-01-01T08:11:32;5.11;;;1.6;;
64022;SDS011;50264;52.088;5.296;2023-01-01T08:13:08;4.61;;;1.6;;
64022;SDS011;50264;52.088;5.296;2023-01-01T08:14:45;6.8;;;1.6;;
64022;SDS011;50264;52.088;5.296;2023-01-01T08:19:34;5.6;;;1.8;;
64022;SDS011;50264;52.088;5.296;2023-01-01T08:21:10;6.7;;;1.4;;
64022;SDS011;50264;52.088;5.296;2023-01-01T08:24:23;7.1;;;1.2;;
64022;SDS011;50264;52.088;5.296;2023-01-01T08:25:59;5.0;;;1.6;;
64022;SDS011;50264;52.088;5.296;2023-01-01T08:27:37;6.3;;;2.1;;
64022;SDS011;50264;52.088;5.296;2023-01-01T08:29:13;10.1;;;2.1;;
64022;SDS011;50264;52.088;5.296;2023-01-01T08:32:25;4.3;;;1.4;;
64022;SDS011;50264;52.088;5.296;2023-01-01T08:34:01;8.1;;;1.8;;
64022;SDS011;50264;52.088;5.296;2023-01-01T08:35:39;6.7;;;1.5;;
64022;SDS011;50264;52.088;5.296;2023-01-01T08:38:56;8.71;;;2.0;;
64022;SDS011;50264;52.088;5.296;2023-01-01T08:40:33;10.9;;;1.9;;
64022;SDS011;50264;52.088;5.296;2023-01-01T08:42:09;3.3;;;1.4;;
64022;SDS011;50264;52.088;5.296;2023-01-01T08:45:21;5.5;;;1.7;;
64022;SDS011;50264;52.088;5.296;2023-01-01T08:46:57;8.4;;;1.9;;
64022;SDS011;50264;52.088;5.296;2023-01-01T08:48:34;4.7;;;1.4;;
64022;SDS011;50264;52.088;5.296;2023-01-01T08:50:10;10.1;;;1.8;;
64022;SDS011;50264;52.088;5.296;2023-01-01T08:53:22;7.9;;;1.9;;
64022;SDS011;50264;52.088;5.296;2023-01-01T08:54:58;6.7;;;2.0;;
64022;SDS011;50264;52.088;5.296;2023-01-01T08:56:34;5.3;;;1.7;;
64022;SDS011;50264;52.088;5.296;2023-01-01T08:59:48;4.7;;;1.7;;
64022;SDS011;50264;52.088;5.296;2023-01-01T09:01:25;7.9;;;2.0;;
64022;SDS011;50264;52.088;5.296;2023-01-01T09:03:02;8.9;;;2.21;;
64022;SDS011;50264;52.088;5.296;2023-01-01T09:06:14;7.3;;;2.31;;
64022;SDS011;50264;52.088;5.296;2023-01-01T09:07:50;8.71;;;2.21;;
64022;SDS011;50264;52.088;5.296;2023-01-01T09:09:27;8.2;;;2.1;;
64022;SDS011;50264;52.088;5.296;2023-01-01T09:11:04;7.8;;;1.8;;
64022;SDS011;50264;52.088;5.296;2023-01-01T09:14:17;6.6;;;1.9;;
64022;SDS011;50264;52.088;5.296;2023-01-01T09:15:54;11.5;;;2.4;;
64022;SDS011;50264;52.088;5.296;2023-01-01T09:17:31;7.6;;;2.0;;
64022;SDS011;50264;52.088;5.296;2023-01-01T09:20:43;6.2;;;2.21;;
64022;SDS011;50264;52.088;5.296;2023-01-01T09:22:20;7.0;;;2.9;;
64022;SDS011;50264;52.088;5.296;2023-01-01T09:23:56;7.2;;;2.4;;
64022;SDS011;50264;52.088;5.296;2023-01-01T09:27:09;6.4;;;2.7;;
64022;SDS011;50264;52.088;5.296;2023-01-01T09:28:45;6.5;;;2.1;;
64022;SDS011;50264;52.088;5.296;2023-01-01T09:30:21;8.2;;;2.1;;
64022;SDS011;50264;52.088;5.296;2023-01-01T09:31:57;8.81;;;2.1;;
64022;SDS011;50264;52.088;5.296;2023-01-01T09:35:11;8.4;;;2.5;;
64022;SDS011;50264;52.088;5.296;2023-01-01T09:38:23;12.4;;;2.6;;
64022;SDS011;50264;52.088;5.296;2023-01-01T09:41:40;7.3;;;2.1;;
64022;SDS011;50264;52.088;5.296;2023-01-01T09:43:41;6.7;;;1.8;;
64022;SDS011;50264;52.088;5.296;2023-01-01T09:45:29;7.4;;;2.21;;
64022;SDS011;50264;52.088;5.296;2023-01-01T09:47:13;7.3;;;2.0;;
64022;SDS011;50264;52.088;5.296;2023-01-01T09:49:00;10.6;;;2.4;;
64022;SDS011;50264;52.088;5.296;2023-01-01T09:52:22;11.2;;;2.21;;
64022;SDS011;50264;52.088;5.296;2023-01-01T09:54:05;8.31;;;2.31;;
64022;SDS011;50264;52.088;5.296;2023-01-01T09:55:52;11.1;;;2.0;;
64022;SDS011;50264;52.088;5.296;2023-01-01T09:57:31;5.4;;;1.9;;
64022;SDS011;50264;52.088;5.296;2023-01-01T10:00:45;11.7;;;2.31;;
64022;SDS011;50264;52.088;5.296;2023-01-01T10:02:31;5.8;;;2.0;;
64022;SDS011;50264;52.088;5.296;2023-01-01T10:04:23;7.2;;;1.9;;
64022;SDS011;50264;52.088;5.296;2023-01-01T10:06:22;9.31;;;2.6;;
64022;SDS011;50264;52.088;5.296;2023-01-01T10:08:04;7.8;;;2.1;;
64022;SDS011;50264;52.088;5.296;2023-01-01T10:09:54;7.2;;;2.0;;
64022;SDS011;50264;52.088;5.296;2023-01-01T10:13:27;6.5;;;2.1;;
64022;SDS011;50264;52.088;5.296;2023-01-01T10:15:12;6.5;;;2.1;;
64022;SDS011;50264;52.088;5.296;2023-01-01T10:16:54;9.21;;;2.5;;
64022;SDS011;50264;52.088;5.296;2023-01-01T10:18:34;8.2;;;2.4;;
64022;SDS011;50264;52.088;5.296;2023-01-01T10:20:15;10.7;;;2.4;;
64022;SDS011;50264;52.088;5.296;2023-01-01T10:23:40;6.3;;;2.4;;
64022;SDS011;50264;52.088;5.296;2023-01-01T10:25:22;6.5;;;2.4;;
64022;SDS011;50264;52.088;5.296;2023-01-01T10:27:02;9.1;;;2.7;;
64022;SDS011;50264;52.088;5.296;2023-01-01T10:28:42;8.0;;;2.1;;
64022;SDS011;50264;52.088;5.296;2023-01-01T10:32:05;9.1;;;2.8;;
64022;SDS011;50264;52.088;5.296;2023-01-01T10:33:54;10.1;;;2.21;;
64022;SDS011;50264;52.088;5.296;2023-01-01T10:35:31;8.5;;;2.5;;
64022;SDS011;50264;52.088;5.296;2023-01-01T10:37:10;10.4;;;2.7;;
64022;SDS011;50264;52.088;5.296;2023-01-01T10:40:26;7.4;;;1.9;;
64022;SDS011;50264;52.088;5.296;2023-01-01T10:42:04;8.2;;;2.7;;
64022;SDS011;50264;52.088;5.296;2023-01-01T10:43:41;10.0;;;2.1;;
64022;SDS011;50264;52.088;5.296;2023-01-01T10:45:18;7.8;;;2.1;;
64022;SDS011;50264;52.088;5.296;2023-01-01T10:49:03;8.81;;;2.4;;
64022;SDS011;50264;52.088;5.296;2023-01-01T10:50:44;7.6;;;2.31;;
64022;SDS011;50264;52.088;5.296;2023-01-01T10:52:24;8.31;;;2.21;;
64022;SDS011;50264;52.088;5.296;2023-01-01T10:54:04;9.1;;;2.5;;
64022;SDS011;50264;52.088;5.296;2023-01-01T10:55:40;10.6;;;2.5;;
64022;SDS011;50264;52.088;5.296;2023-01-01T10:59:31;7.1;;;2.31;;
64022;SDS011;50264;52.088;5.296;2023-01-01T11:01:10;11.7;;;2.8;;
64022;SDS011;50264;52.088;5.296;2023-01-01T11:03:11;8.0;;;2.21;;
64022;SDS011;50264;52.088;5.296;2023-01-01T11:05:10;13.0;;;3.0;;
64022;SDS011;50264;52.088;5.296;2023-01-01T11:06:51;11.6;;;2.7;;
64022;SDS011;50264;52.088;5.296;2023-01-01T11:08:27;11.9;;;2.9;;
64022;SDS011;50264;52.088;5.296;2023-01-01T11:11:53;12.9;;;2.8;;
64022;SDS011;50264;52.088;5.296;2023-01-01T11:13:32;11.2;;;2.6;;
64022;SDS011;50264;52.088;5.296;2023-01-01T11:15:18;8.4;;;2.7;;
64022;SDS011;50264;52.088;5.296;2023-01-01T11:16:56;10.6;;;2.7;;
64022;SDS011;50264;52.088;5.296;2023-01-01T11:20:15;14.4;;;2.8;;
64022;SDS011;50264;52.088;5.296;2023-01-01T11:21:54;7.8;;;2.31;;
64022;SDS011;50264;52.088;5.296;2023-01-01T11:23:32;10.7;;;2.6;;
64022;SDS011;50264;52.088;5.296;2023-01-01T11:25:16;12.1;;;2.9;;
64022;SDS011;50264;52.088;5.296;2023-01-01T11:29:00;9.0;;;3.2;;
64022;SDS011;50264;52.088;5.296;2023-01-01T11:30:40;12.6;;;2.7;;
64022;SDS011;50264;52.088;5.296;2023-01-01T11:32:33;7.6;;;2.7;;
64022;SDS011;50264;52.088;5.296;2023-01-01T11:34:14;6.0;;;2.4;;
64022;SDS011;50264;52.088;5.296;2023-01-01T11:36:02;5.5;;;2.4;;
64022;SDS011;50264;52.088;5.296;2023-01-01T11:37:40;8.31;;;2.7;;
64022;SDS011;50264;52.088;5.296;2023-01-01T11:41:01;9.0;;;2.7;;
64022;SDS011;50264;52.088;5.296;2023-01-01T11:42:42;8.0;;;3.1;;
64022;SDS011;50264;52.088;5.296;2023-01-01T11:44:24;9.0;;;3.0;;
64022;SDS011;50264;52.088;5.296;2023-01-01T11:46:09;7.2;;;2.6;;
64022;SDS011;50264;52.088;5.296;2023-01-01T11:49:32;10.0;;;2.5;;
64022;SDS011;50264;52.088;5.296;2023-01-01T11:51:11;5.5;;;2.5;;
64022;SDS011;50264;52.088;5.296;2023-01-01T11:53:25;8.0;;;2.8;;
64022;SDS011;50264;52.088;5.296;2023-01-01T11:55:10;8.31;;;2.9;;
64022;SDS011;50264;52.088;5.296;2023-01-01T11:56:56;13.8;;;3.1;;
64022;SDS011;50264;52.088;5.296;2023-01-01T11:58:43;13.8;;;2.8;;
64022;SDS011;50264;52.088;5.296;2023-01-01T12:02:09;9.5;;;3.4;;
64022;SDS011;50264;52.088;5.296;2023-01-01T12:03:50;10.6;;;2.8;;
64022;SDS011;50264;52.088;5.296;2023-01-01T12:05:35;11.3;;;2.8;;
64022;SDS011;50264;52.088;5.296;2023-01-01T12:07:21;11.5;;;3.2;;
64022;SDS011;50264;52.088;5.296;2023-01-01T12:09:04;5.11;;;2.7;;
64022;SDS011;50264;52.088;5.296;2023-01-01T12:12:29;10.21;;;3.0;;
64022;SDS011;50264;52.088;5.296;2023-01-01T12:14:12;9.5;;;3.2;;
64022;SDS011;50264;52.088;5.296;2023-01-01T12:15:57;8.9;;;2.7;;
64022;SDS011;50264;52.088;5.296;2023-01-01T12:17:42;7.8;;;2.8;;
64022;SDS011;50264;52.088;5.296;2023-01-01T12:19:22;9.71;;;3.1;;
64022;SDS011;50264;52.088;5.296;2023-01-01T12:22:48;7.3;;;2.8;;
64022;SDS011;50264;52.088;5.296;2023-01-01T12:24:27;10.3;;;3.2;;
64022;SDS011;50264;52.088;5.296;2023-01-01T12:26:10;8.6;;;3.1;;
64022;SDS011;50264;52.088;5.296;2023-01-01T12:27:57;12.1;;;3.5;;
64022;SDS011;50264;52.088;5.296;2023-01-01T12:31:47;12.5;;;3.4;;
64022;SDS011;50264;52.088;5.296;2023-01-01T12:34:07;8.31;;;2.9;;
64022;SDS011;50264;52.088;5.296;2023-01-01T12:35:53;13.0;;;3.8;;
64022;SDS011;50264;52.088;5.296;2023-01-01T12:37:42;7.1;;;2.9;;
64022;SDS011;50264;52.088;5.296;2023-01-01T12:42:32;11.1;;;3.1;;
64022;SDS011;50264;52.088;5.296;2023-01-01T12:46:14;9.4;;;3.1;;
64022;SDS011;50264;52.088;5.296;2023-01-01T12:48:16;9.5;;;3.7;;
64022;SDS011;50264;52.088;5.296;2023-01-01T12:50:20;16.2;;;3.7;;
64022;SDS011;50264;52.088;5.296;2023-01-01T12:52:19;12.0;;;3.5;;
64022;SDS011;50264;52.088;5.296;2023-01-01T12:54:31;12.6;;;3.0;;
64022;SDS011;50264;52.088;5.296;2023-01-01T12:56:22;12.4;;;2.9;;
64022;SDS011;50264;52.088;5.296;2023-01-01T12:58:08;8.1;;;3.0;;
64022;SDS011;50264;52.088;5.296;2023-01-01T12:59:48;7.6;;;3.2;;
64022;SDS011;50264;52.088;5.296;2023-01-01T13:01:29;12.1;;;3.1;;
64022;SDS011;50264;52.088;5.296;2023-01-01T13:04:55;13.2;;;3.9;;
64022;SDS011;50264;52.088;5.296;2023-01-01T13:06:39;14.0;;;3.3;;
64022;SDS011;50264;52.088;5.296;2023-01-01T13:08:21;9.31;;;2.9;;
64022;SDS011;50264;52.088;5.296;2023-01-01T13:10:06;12.3;;;3.0;;
64022;SDS011;50264;52.088;5.296;2023-01-01T13:11:54;11.9;;;3.3;;
64022;SDS011;50264;52.088;5.296;2023-01-01T13:15:43;11.9;;;3.3;;
64022;SDS011;50264;52.088;5.296;2023-01-01T13:17:24;15.9;;;3.3;;
64022;SDS011;50264;52.088;5.296;2023-01-01T13:19:04;10.5;;;3.3;;
64022;SDS011;50264;52.088;5.296;2023-01-01T13:20:41;13.1;;;3.2;;
64022;SDS011;50264;52.088;5.296;2023-01-01T13:24:18;14.6;;;3.4;;
64022;SDS011;50264;52.088;5.296;2023-01-01T13:28:10;9.0;;;3.2;;
64022;SDS011;50264;52.088;5.296;2023-01-01T13:29:48;11.5;;;3.1;;
64022;SDS011;50264;52.088;5.296;2023-01-01T13:31:30;12.4;;;3.2;;
64022;SDS011;50264;52.088;5.296;2023-01-01T13:33:37;12.1;;;3.0;;
64022;SDS011;50264;52.088;5.296;2023-01-01T13:35:14;7.8;;;2.9;;
64022;SDS011;50264;52.088;5.296;2023-01-01T13:36:51;8.81;;;3.1;;
64022;SDS011;50264;52.088;5.296;2023-01-01T13:39:49;12.9;;;3.2;;
64022;SDS011;50264;52.088;5.296;2023-01-01T13:41:27;6.4;;;2.6;;
64022;SDS011;50264;52.088;5.296;2023-01-01T13:43:15;12.9;;;3.0;;
64022;SDS011;50264;52.088;5.296;2023-01-01T13:45:12;12.2;;;3.1;;
64022;SDS011;50264;52.088;5.296;2023-01-01T13:49:05;12.3;;;3.3;;
64022;SDS011;50264;52.088;5.296;2023-01-01T13:51:02;10.5;;;3.3;;
64022;SDS011;50264;52.088;5.296;2023-01-01T13:53:11;13.6;;;3.2;;
64022;SDS011;50264;52.088;5.296;2023-01-01T13:55:26;14.2;;;2.8;;
64022;SDS011;50264;52.088;5.296;2023-01-01T13:57:47;10.1;;;2.8;;
64022;SDS011;50264;52.088;5.296;2023-01-01T14:00:13;12.8;;;3.1;;
64022;SDS011;50264;52.088;5.296;2023-01-01T14:01:57;15.1;;;3.1;;
64022;SDS011;50264;52.088;5.296;2023-01-01T14:05:30;17.7;;;3.5;;
64022;SDS011;50264;52.088;5.296;2023-01-01T14:07:15;11.0;;;3.7;;
64022;SDS011;50264;52.088;5.296;2023-01-01T14:09:00;11.2;;;3.4;;
64022;SDS011;50264;52.088;5.296;2023-01-01T14:10:39;11.4;;;3.8;;
64022;SDS011;50264;52.088;5.296;2023-01-01T14:12:24;9.21;;;3.1;;
64022;SDS011;50264;52.088;5.296;2023-01-01T14:15:37;9.81;;;2.7;;
64022;SDS011;50264;52.088;5.296;2023-01-01T14:17:15;9.0;;;3.3;;
64022;SDS011;50264;52.088;5.296;2023-01-01T14:18:52;13.9;;;3.3;;
64022;SDS011;50264;52.088;5.296;2023-01-01T14:22:15;11.3;;;3.3;;
64022;SDS011;50264;52.088;5.296;2023-01-01T14:23:53;9.21;;;3.0;;
64022;SDS011;50264;52.088;5.296;2023-01-01T14:25:31;13.0;;;3.2;;
64022;SDS011;50264;52.088;5.296;2023-01-01T14:27:11;9.1;;;3.2;;
64022;SDS011;50264;52.088;5.296;2023-01-01T14:30:31;13.1;;;3.2;;
64022;SDS011;50264;52.088;5.296;2023-01-01T14:32:11;12.2;;;3.4;;
64022;SDS011;50264;52.088;5.296;2023-01-01T14:33:49;16.0;;;4.0;;
64022;SDS011;50264;52.088;5.296;2023-01-01T14:35:27;11.8;;;3.8;;
64022;SDS011;50264;52.088;5.296;2023-01-01T14:38:57;10.0;;;4.1;;
64022;SDS011;50264;52.088;5.296;2023-01-01T14:40:34;13.7;;;3.2;;
64022;SDS011;50264;52.088;5.296;2023-01-01T14:42:12;9.81;;;3.2;;
64022;SDS011;50264;52.088;5.296;2023-01-01T14:43:52;9.81;;;3.3;;
64022;SDS011;50264;52.088;5.296;2023-01-01T14:47:15;12.6;;;3.5;;
64022;SDS011;50264;52.088;5.296;2023-01-01T14:49:02;8.4;;;3.5;;
64022;SDS011;50264;52.088;5.296;2023-01-01T14:50:45;8.81;;;3.4;;
64022;SDS011;50264;52.088;5.296;2023-01-01T14:52:25;11.5;;;3.2;;
64022;SDS011;50264;52.088;5.296;2023-01-01T14:55:40;9.1;;;3.6;;
64022;SDS011;50264;52.088;5.296;2023-01-01T14:57:19;11.0;;;3.8;;
64022;SDS011;50264;52.088;5.296;2023-01-01T14:59:09;14.4;;;3.3;;
64022;SDS011;50264;52.088;5.296;2023-01-01T15:00:50;7.9;;;3.0;;
64022;SDS011;50264;52.088;5.296;2023-01-01T15:04:12;11.0;;;3.4;;
64022;SDS011;50264;52.088;5.296;2023-01-01T15:05:56;15.4;;;3.7;;
64022;SDS011;50264;52.088;5.296;2023-01-01T15:07:35;10.7;;;3.4;;
64022;SDS011;50264;52.088;5.296;2023-01-01T15:09:12;9.0;;;3.4;;
64022;SDS011;50264;52.088;5.296;2023-01-01T15:12:32;10.4;;;3.4;;
64022;SDS011;50264;52.088;5.296;2023-01-01T15:14:26;13.5;;;3.5;;
64022;SDS011;50264;52.088;5.296;2023-01-01T15:16:14;15.2;;;3.7;;
64022;SDS011;50264;52.088;5.296;2023-01-01T15:17:58;13.8;;;3.9;;
64022;SDS011;50264;52.088;5.296;2023-01-01T15:19:34;16.7;;;4.1;;
64022;SDS011;50264;52.088;5.296;2023-01-01T15:22:52;11.1;;;3.6;;
64022;SDS011;50264;52.088;5.296;2023-01-01T15:24:29;16.3;;;4.3;;
64022;SDS011;50264;52.088;5.296;2023-01-01T15:26:13;13.0;;;3.4;;
64022;SDS011;50264;52.088;5.296;2023-01-01T15:28:01;9.9;;;3.5;;
64022;SDS011;50264;52.088;5.296;2023-01-01T15:31:20;12.4;;;4.2;;
64022;SDS011;50264;52.088;5.296;2023-01-01T15:33:04;10.0;;;4.0;;
64022;SDS011;50264;52.088;5.296;2023-01-01T15:34:42;11.9;;;4.2;;
64022;SDS011;50264;52.088;5.296;2023-01-01T15:36:23;11.0;;;3.8;;
64022;SDS011;50264;52.088;5.296;2023-01-01T15:39:46;11.4;;;3.2;;
64022;SDS011;50264;52.088;5.296;2023-01-01T15:41:25;11.8;;;3.3;;
64022;SDS011;50264;52.088;5.296;2023-01-01T15:43:18;18.41;;;4.61;;
64022;SDS011;50264;52.088;5.296;2023-01-01T15:45:07;13.1;;;3.4;;
64022;SDS011;50264;52.088;5.296;2023-01-01T15:47:02;10.9;;;3.6;;
64022;SDS011;50264;52.088;5.296;2023-01-01T15:48:47;15.2;;;3.4;;
64022;SDS011;50264;52.088;5.296;2023-01-01T15:52:12;11.8;;;3.7;;
64022;SDS011;50264;52.088;5.296;2023-01-01T15:53:55;10.5;;;3.9;;
64022;SDS011;50264;52.088;5.296;2023-01-01T15:55:34;7.2;;;3.3;;
64022;SDS011;50264;52.088;5.296;2023-01-01T15:57:18;9.9;;;3.2;;
64022;SDS011;50264;52.088;5.296;2023-01-01T16:00:37;9.81;;;3.9;;
64022;SDS011;50264;52.088;5.296;2023-01-01T16:02:16;10.1;;;3.7;;
64022;SDS011;50264;52.088;5.296;2023-01-01T16:03:59;12.3;;;3.8;;
64022;SDS011;50264;52.088;5.296;2023-01-01T16:05:45;15.7;;;3.7;;
64022;SDS011;50264;52.088;5.296;2023-01-01T16:07:22;11.9;;;4.1;;
64022;SDS011;50264;52.088;5.296;2023-01-01T16:10:37;9.5;;;3.8;;
64022;SDS011;50264;52.088;5.296;2023-01-01T16:12:13;11.9;;;3.9;;
64022;SDS011;50264;52.088;5.296;2023-01-01T16:13:50;13.3;;;4.3;;
64022;SDS011;50264;52.088;5.296;2023-01-01T16:17:03;11.2;;;4.1;;
64022;SDS011;50264;52.088;5.296;2023-01-01T16:18:40;12.6;;;3.6;;
64022;SDS011;50264;52.088;5.296;2023-01-01T16:20:18;11.5;;;3.9;;
64022;SDS011;50264;52.088;5.296;2023-01-01T16:23:32;12.4;;;4.2;;
64022;SDS011;50264;52.088;5.296;2023-01-01T16:25:11;13.6;;;4.61;;
64022;SDS011;50264;52.088;5.296;2023-01-01T16:26:49;10.5;;;3.7;;
64022;SDS011;50264;52.088;5.296;2023-01-01T16:28:26;11.0;;;3.9;;
64022;SDS011;50264;52.088;5.296;2023-01-01T16:31:39;11.0;;;3.9;;
64022;SDS011;50264;52.088;5.296;2023-01-01T16:33:17;11.9;;;4.3;;
64022;SDS011;50264;52.088;5.296;2023-01-01T16:34:55;8.5;;;3.8;;
64022;SDS011;50264;52.088;5.296;2023-01-01T16:38:08;11.3;;;4.3;;
64022;SDS011;50264;52.088;5.296;2023-01-01T16:39:45;9.71;;;3.8;;
64022;SDS011;50264;52.088;5.296;2023-01-01T16:41:21;11.6;;;4.0;;
64022;SDS011;50264;52.088;5.296;2023-01-01T16:42:58;9.31;;;4.41;;
64022;SDS011;50264;52.088;5.296;2023-01-01T16:46:14;17.61;;;4.41;;
64022;SDS011;50264;52.088;5.296;2023-01-01T16:47:52;15.2;;;4.7;;
64022;SDS011;50264;52.088;5.296;2023-01-01T16:49:29;9.31;;;3.8;;
64022;SDS011;50264;52.088;5.296;2023-01-01T16:52:42;7.6;;;3.4;;